createdAt,value
2023-05-02T00:01:14.654Z,99.90
2023-05-02T00:03:42.879Z,99.90
2023-05-02T00:06:09.833Z,99.90
2023-05-02T00:08:36.480Z,99.90
2023-05-02T00:11:03.288Z,99.90
2023-05-02T00:13:29.919Z,99.90
2023-05-02T00:15:56.542Z,99.90
2023-05-02T00:18:24.182Z,99.90
2023-05-02T00:20:50.864Z,99.90
2023-05-02T00:23:17.509Z,99.90
2023-05-02T00:25:46.021Z,99.90
2023-05-02T00:28:13.741Z,99.90
2023-05-02T00:30:44.937Z,99.90
2023-05-02T00:33:13.368Z,99.90
2023-05-02T00:35:40.740Z,99.90
2023-05-02T00:38:07.639Z,99.90
2023-05-02T00:40:47.958Z,99.90
2023-05-02T00:43:16.667Z,99.90
2023-05-02T00:45:44.606Z,99.90
2023-05-02T00:48:11.886Z,99.90
2023-05-02T00:50:41.465Z,99.90
2023-05-02T00:53:09.267Z,99.90
2023-05-02T00:55:36.344Z,99.90
2023-05-02T00:58:10.882Z,99.90
2023-05-02T01:01:05.289Z,99.90
2023-05-02T01:03:36.949Z,99.90
2023-05-02T01:06:37.941Z,99.90
2023-05-02T01:09:44.680Z,99.90
2023-05-02T01:12:59.726Z,99.90
2023-05-02T01:15:27.423Z,99.90
2023-05-02T01:17:56.167Z,99.90
2023-05-02T01:20:27.597Z,99.90
2023-05-02T01:22:58.184Z,99.90
2023-05-02T01:26:02.329Z,99.90
2023-05-02T01:28:58.408Z,99.90
2023-05-02T01:31:27.626Z,99.90
2023-05-02T01:33:56.064Z,99.90
2023-05-02T01:36:25.265Z,99.90
2023-05-02T01:38:52.761Z,99.90
2023-05-02T01:41:20.846Z,99.90
2023-05-02T01:43:48.622Z,99.90
2023-05-02T01:46:15.763Z,99.90
2023-05-02T01:48:46.024Z,99.90
2023-05-02T01:51:15.723Z,99.90
2023-05-02T01:53:44.292Z,99.90
2023-05-02T01:56:11.036Z,99.90
2023-05-02T01:58:38.876Z,99.90
2023-05-02T02:01:06.945Z,99.90
2023-05-02T02:03:33.716Z,99.90
2023-05-02T02:06:03.091Z,99.90
2023-05-02T02:08:29.756Z,99.90
2023-05-02T02:11:04.278Z,99.90
2023-05-02T02:13:36.749Z,99.90
2023-05-02T02:16:06.951Z,99.90
2023-05-02T02:18:38.102Z,99.90
2023-05-02T02:21:09.665Z,99.90
2023-05-02T02:23:38.140Z,99.90
2023-05-02T02:26:06.365Z,99.90
2023-05-02T02:28:34.470Z,99.90
2023-05-02T02:31:01.337Z,99.90
2023-05-02T02:33:31.601Z,99.90
2023-05-02T02:36:14.202Z,99.90
2023-05-02T02:38:58.057Z,99.90
2023-05-02T02:41:39.744Z,99.90
2023-05-02T02:44:18.955Z,99.90
2023-05-02T02:47:04.097Z,99.90
2023-05-02T02:49:49.625Z,99.90
2023-05-02T02:52:31.862Z,99.90
2023-05-02T02:55:06.659Z,99.90
2023-05-02T02:57:41.238Z,99.90
2023-05-02T03:00:11.442Z,99.90
2023-05-02T03:02:42.429Z,99.90
2023-05-02T03:05:11.027Z,99.90
2023-05-02T03:07:37.645Z,99.90
2023-05-02T03:10:05.902Z,99.90
2023-05-02T03:12:33.030Z,99.90
2023-05-02T03:15:11.686Z,99.90
2023-05-02T03:17:38.299Z,99.90
2023-05-02T03:20:05.656Z,99.90
2023-05-02T03:22:32.246Z,99.90
2023-05-02T03:24:58.822Z,99.90
2023-05-02T03:27:25.902Z,99.90
2023-05-02T03:29:52.491Z,99.90
2023-05-02T03:32:19.068Z,99.90
2023-05-02T03:34:45.667Z,99.90
2023-05-02T03:37:12.281Z,99.90
2023-05-02T03:39:38.960Z,99.90
2023-05-02T03:42:05.963Z,99.90
2023-05-02T03:44:32.632Z,99.90
2023-05-02T03:46:59.317Z,99.90
2023-05-02T03:49:26.019Z,99.90
2023-05-02T03:51:52.640Z,99.90
2023-05-02T03:54:19.306Z,99.90
2023-05-02T03:56:46.925Z,99.90
2023-05-02T03:59:14.682Z,99.90
2023-05-02T04:01:41.435Z,99.90
2023-05-02T04:04:08.603Z,99.90
2023-05-02T04:06:35.586Z,99.90
2023-05-02T04:09:02.370Z,99.90
2023-05-02T04:11:29.013Z,99.90
2023-05-02T04:13:55.649Z,99.90
2023-05-02T04:16:22.552Z,99.90
2023-05-02T04:18:49.171Z,99.90
2023-05-02T04:21:15.805Z,99.90
2023-05-02T04:23:42.504Z,99.90
2023-05-02T04:26:09.133Z,99.90
2023-05-02T04:28:36.210Z,99.90
2023-05-02T04:31:04.057Z,99.90
2023-05-02T04:33:31.580Z,99.90
2023-05-02T04:35:58.192Z,99.90
2023-05-02T04:38:24.922Z,99.90
2023-05-02T04:40:52.329Z,99.90
2023-05-02T04:43:18.940Z,99.90
2023-05-02T04:45:45.639Z,99.90
2023-05-02T04:48:12.344Z,99.90
2023-05-02T04:50:39.015Z,99.90
2023-05-02T04:53:06.202Z,99.90
2023-05-02T04:55:32.841Z,99.90
2023-05-02T04:57:59.491Z,99.90
2023-05-02T05:00:26.127Z,99.90
2023-05-02T05:02:53.004Z,99.90
2023-05-02T05:05:20.317Z,99.90
2023-05-02T05:07:46.937Z,99.90
2023-05-02T05:10:13.655Z,99.90
2023-05-02T05:12:40.999Z,99.90
2023-05-02T05:15:08.262Z,99.90
2023-05-02T05:17:35.038Z,99.90
2023-05-02T05:20:02.089Z,99.90
2023-05-02T05:22:29.019Z,99.90
2023-05-02T05:24:55.920Z,99.90
2023-05-02T05:27:22.521Z,99.90
2023-05-02T05:29:49.175Z,99.90
2023-05-02T05:32:16.047Z,99.90
2023-05-02T05:34:42.710Z,99.90
2023-05-02T05:37:09.412Z,99.90
2023-05-02T05:39:36.167Z,99.90
2023-05-02T05:42:03.554Z,99.90
2023-05-02T05:44:30.153Z,99.90
2023-05-02T05:46:56.816Z,99.90
2023-05-02T05:49:24.224Z,99.90
2023-05-02T05:51:50.977Z,99.90
2023-05-02T05:54:18.505Z,99.90
2023-05-02T05:56:45.893Z,99.90
2023-05-02T05:59:13.200Z,99.90
2023-05-02T06:01:40.383Z,99.90
2023-05-02T06:04:07.764Z,99.90
2023-05-02T06:06:34.943Z,99.90
2023-05-02T06:09:02.366Z,99.90
2023-05-02T06:11:28.977Z,99.90
2023-05-02T06:13:55.776Z,99.90
2023-05-02T06:16:22.465Z,99.90
2023-05-02T06:18:51.880Z,99.90
2023-05-02T06:21:18.616Z,99.90
2023-05-02T06:23:45.900Z,99.90
2023-05-02T06:26:12.558Z,99.90
2023-05-02T06:28:39.154Z,99.90
2023-05-02T06:31:06.250Z,99.90
2023-05-02T06:33:34.284Z,99.90
2023-05-02T06:36:01.929Z,99.90
2023-05-02T06:38:30.370Z,99.90
2023-05-02T06:40:57.073Z,99.90
2023-05-02T06:43:23.805Z,99.90
2023-05-02T06:45:54.096Z,99.90
2023-05-02T06:48:21.558Z,99.90
2023-05-02T06:50:49.271Z,99.90
2023-05-02T06:53:16.249Z,99.90
2023-05-02T06:55:43.921Z,99.90
2023-05-02T06:58:10.786Z,99.90
2023-05-02T07:00:37.476Z,99.90
2023-05-02T07:03:04.235Z,99.90
2023-05-02T07:05:31.437Z,99.90
2023-05-02T07:07:58.211Z,99.90
2023-05-02T07:10:25.054Z,99.90
2023-05-02T07:12:51.717Z,99.90
2023-05-02T07:15:18.366Z,99.90
2023-05-02T07:17:47.380Z,99.90
2023-05-02T07:20:14.518Z,99.90
2023-05-02T07:22:41.133Z,99.90
2023-05-02T07:25:08.226Z,99.90
2023-05-02T07:27:35.140Z,99.90
2023-05-02T07:30:02.141Z,99.90
2023-05-02T07:32:29.238Z,99.90
2023-05-02T07:34:58.643Z,99.90
2023-05-02T07:37:25.308Z,99.90
2023-05-02T07:39:51.950Z,99.90
2023-05-02T07:42:18.609Z,99.90
2023-05-02T07:44:45.235Z,99.90
2023-05-02T07:47:11.901Z,99.90
2023-05-02T07:49:38.555Z,99.90
2023-05-02T07:52:05.167Z,99.90
2023-05-02T07:54:31.805Z,99.90
2023-05-02T07:57:02.118Z,99.90
2023-05-02T07:59:30.979Z,99.90
2023-05-02T08:01:57.751Z,99.90
2023-05-02T08:04:24.527Z,99.90
2023-05-02T08:06:51.582Z,99.90
2023-05-02T08:09:18.320Z,99.90
2023-05-02T08:11:45.112Z,99.90
2023-05-02T08:14:11.751Z,99.90
2023-05-02T08:16:38.729Z,99.90
2023-05-02T08:19:05.579Z,99.90
2023-05-02T08:21:32.364Z,99.90
2023-05-02T08:23:59.390Z,99.90
2023-05-02T08:26:26.992Z,99.90
2023-05-02T08:28:54.918Z,99.90
2023-05-02T08:31:21.876Z,99.90
2023-05-02T08:33:48.551Z,99.90
2023-05-02T08:36:16.665Z,99.90
2023-05-02T08:38:44.616Z,99.90
2023-05-02T08:41:16.798Z,99.90
2023-05-02T08:43:47.146Z,99.90
2023-05-02T08:46:15.670Z,99.90
2023-05-02T08:48:44.897Z,99.90
2023-05-02T08:51:13.406Z,99.90
2023-05-02T08:53:42.369Z,99.90
2023-05-02T08:56:10.774Z,99.90
2023-05-02T08:58:39.490Z,99.90
2023-05-02T09:01:17.204Z,99.90
2023-05-02T09:03:45.419Z,99.90
2023-05-02T09:06:15.224Z,99.90
2023-05-02T09:08:43.581Z,99.90
2023-05-02T09:11:11.879Z,99.90
2023-05-02T09:13:48.917Z,99.90
2023-05-02T09:16:16.394Z,99.90
2023-05-02T09:18:45.644Z,99.90
2023-05-02T09:21:18.077Z,99.90
2023-05-02T09:23:51.433Z,99.90
2023-05-02T09:26:22.189Z,99.90
2023-05-02T09:28:56.226Z,99.90
2023-05-02T09:31:49.552Z,99.90
2023-05-02T09:34:17.444Z,99.90
2023-05-02T09:36:51.729Z,99.90
2023-05-02T09:39:25.428Z,99.90
2023-05-02T09:41:53.298Z,99.90
2023-05-02T09:44:41.101Z,99.90
2023-05-02T09:47:08.534Z,99.90
2023-05-02T09:49:41.252Z,99.90
2023-05-02T09:52:15.826Z,99.90
2023-05-02T09:54:42.826Z,99.90
2023-05-02T09:57:10.580Z,99.90
2023-05-02T09:59:38.558Z,99.90
2023-05-02T10:02:07.335Z,99.90
2023-05-02T10:04:34.793Z,99.90
2023-05-02T10:07:03.047Z,99.90
2023-05-02T10:09:32.509Z,99.90
2023-05-02T10:12:06.636Z,99.90
2023-05-02T10:14:41.130Z,99.90
2023-05-02T10:17:23.034Z,99.90
2023-05-02T10:20:01.004Z,99.90
2023-05-02T10:22:27.944Z,99.90
2023-05-02T10:24:57.752Z,99.90
2023-05-02T10:27:25.056Z,98.50
2023-05-02T10:29:52.666Z,98.10
2023-05-02T10:32:21.450Z,97.20
2023-05-02T10:34:50.069Z,96.70
2023-05-02T10:37:18.378Z,95.90
2023-05-02T10:39:45.721Z,95.20
2023-05-02T10:42:14.176Z,95.20
2023-05-02T10:44:41.421Z,95.70
2023-05-02T10:47:21.543Z,95.70
2023-05-02T10:50:01.792Z,97.20
2023-05-02T10:52:31.576Z,94.90
2023-05-02T10:55:21.305Z,93.30
2023-05-02T10:58:00.172Z,92.80
2023-05-02T11:00:27.621Z,92.10
2023-05-02T11:02:54.361Z,91.80
2023-05-02T11:05:23.181Z,91.30
2023-05-02T11:07:50.179Z,88.40
2023-05-02T11:10:16.785Z,85.20
2023-05-02T11:12:48.976Z,88.00
2023-05-02T11:15:28.829Z,80.80
2023-05-02T11:17:58.945Z,79.50
2023-05-02T11:20:25.865Z,78.70
2023-05-02T11:22:54.076Z,80.20
2023-05-02T11:25:41.748Z,79.50
2023-05-02T11:28:37.007Z,79.50
2023-05-02T11:31:08.018Z,76.70
2023-05-02T11:33:34.672Z,79.10
2023-05-02T11:36:01.422Z,79.20
2023-05-02T11:38:36.714Z,80.80
2023-05-02T11:41:04.194Z,79.80
2023-05-02T11:43:32.433Z,79.70
2023-05-02T11:46:01.728Z,80.90
2023-05-02T11:48:30.371Z,80.90
2023-05-02T11:51:02.062Z,78.90
2023-05-02T11:53:29.418Z,81.00
2023-05-02T11:55:58.364Z,81.80
2023-05-02T11:58:29.820Z,82.00
2023-05-02T12:00:57.179Z,83.40
2023-05-02T12:03:30.889Z,84.90
2023-05-02T12:06:12.972Z,84.80
2023-05-02T12:08:41.384Z,82.90
2023-05-02T12:11:09.070Z,82.60
2023-05-02T12:13:44.503Z,81.00
2023-05-02T12:16:11.331Z,79.10
2023-05-02T12:18:38.356Z,74.40
2023-05-02T12:21:05.849Z,73.40
2023-05-02T12:23:34.365Z,72.00
2023-05-02T12:26:17.161Z,72.30
2023-05-02T12:28:51.402Z,73.40
2023-05-02T12:31:18.299Z,74.50
2023-05-02T12:33:48.130Z,76.10
2023-05-02T12:36:14.833Z,74.80
2023-05-02T12:38:49.114Z,75.90
2023-05-02T12:41:15.793Z,76.20
2023-05-02T12:43:49.551Z,76.70
2023-05-02T12:46:16.508Z,77.00
2023-05-02T12:48:44.866Z,76.40
2023-05-02T12:51:23.958Z,77.90
2023-05-02T12:53:50.723Z,74.70
2023-05-02T12:56:17.479Z,72.20
2023-05-02T12:58:46.398Z,70.60
2023-05-02T13:01:13.953Z,67.00
2023-05-02T13:03:41.201Z,65.70
2023-05-02T13:06:08.094Z,58.60
2023-05-02T13:08:36.253Z,55.00
2023-05-02T13:11:03.912Z,54.30
2023-05-02T13:13:31.091Z,57.80
2023-05-02T13:15:57.817Z,59.30
2023-05-02T13:18:25.071Z,61.10
2023-05-02T13:20:51.738Z,60.50
2023-05-02T13:23:18.386Z,61.20
2023-05-02T13:25:45.017Z,61.80
2023-05-02T13:28:11.696Z,61.70
2023-05-02T13:30:38.404Z,63.60
2023-05-02T13:33:05.056Z,64.90
2023-05-02T13:35:33.330Z,65.60
2023-05-02T13:38:01.406Z,68.10
2023-05-02T13:40:28.333Z,68.50
2023-05-02T13:42:54.968Z,68.90
2023-05-02T13:45:21.766Z,70.30
2023-05-02T13:47:48.459Z,70.30
2023-05-02T13:50:15.253Z,71.20
2023-05-02T13:52:41.879Z,71.50
2023-05-02T13:55:09.012Z,72.50
2023-05-02T13:57:35.665Z,73.10
2023-05-02T14:00:02.904Z,74.20
2023-05-02T14:02:29.947Z,74.70
2023-05-02T14:04:56.615Z,75.10
2023-05-02T14:07:23.423Z,74.70
2023-05-02T14:09:50.109Z,74.80
2023-05-02T14:12:16.735Z,76.70
2023-05-02T14:14:43.349Z,78.10
2023-05-02T14:17:10.027Z,79.60
2023-05-02T14:19:36.690Z,81.30
2023-05-02T14:22:03.320Z,82.80
2023-05-02T14:24:29.951Z,85.20
2023-05-02T14:26:58.243Z,75.70
2023-05-02T14:29:24.895Z,62.60
2023-05-02T14:31:51.610Z,56.80
2023-05-02T14:34:18.316Z,50.90
2023-05-02T14:36:45.007Z,47.10
2023-05-02T14:39:11.599Z,43.40
2023-05-02T14:41:38.235Z,39.80
2023-05-02T14:44:05.048Z,37.70
2023-05-02T14:46:31.710Z,34.90
2023-05-02T14:48:58.393Z,32.50
2023-05-02T14:51:24.977Z,31.90
2023-05-02T14:53:51.572Z,32.30
2023-05-02T14:56:18.796Z,32.40
2023-05-02T14:58:45.833Z,33.10
2023-05-02T15:01:20.778Z,34.40
2023-05-02T15:04:04.119Z,35.00
2023-05-02T15:06:32.641Z,35.60
2023-05-02T15:08:59.444Z,35.60
2023-05-02T15:11:26.095Z,36.30
2023-05-02T15:13:52.786Z,37.40
2023-05-02T15:16:19.615Z,37.40
2023-05-02T15:18:46.271Z,36.70
2023-05-02T15:21:13.094Z,37.20
2023-05-02T15:23:39.728Z,38.60
2023-05-02T15:26:06.610Z,38.20
2023-05-02T15:28:33.247Z,39.40
2023-05-02T15:30:59.810Z,40.90
2023-05-02T15:33:26.420Z,41.50
2023-05-02T15:36:00.823Z,42.10
2023-05-02T15:38:28.066Z,43.30
2023-05-02T15:40:59.278Z,42.60
2023-05-02T15:43:26.954Z,42.40
2023-05-02T15:45:55.399Z,42.40
2023-05-02T15:48:22.869Z,42.30
2023-05-02T15:50:49.857Z,43.10
2023-05-02T15:53:16.961Z,43.20
2023-05-02T15:55:45.617Z,43.80
2023-05-02T15:58:13.057Z,44.10
2023-05-02T16:00:40.183Z,43.50
2023-05-02T16:03:07.060Z,43.10
2023-05-02T16:05:34.200Z,42.40
2023-05-02T16:08:01.109Z,42.90
2023-05-02T16:10:28.120Z,42.10
2023-05-02T16:12:54.914Z,40.80
2023-05-02T16:15:22.194Z,40.30
2023-05-02T16:17:49.883Z,40.20
2023-05-02T16:20:17.698Z,41.60
2023-05-02T16:22:46.282Z,41.90
2023-05-02T16:25:14.234Z,42.10
2023-05-02T16:27:41.070Z,42.20
2023-05-02T16:30:08.608Z,43.30
2023-05-02T16:32:37.160Z,44.70
2023-05-02T16:35:07.126Z,45.50
2023-05-02T16:37:34.989Z,45.70
2023-05-02T16:40:02.448Z,45.30
2023-05-02T16:42:29.646Z,45.90
2023-05-02T16:44:57.398Z,45.80
2023-05-02T16:47:24.230Z,45.80
2023-05-02T16:49:55.438Z,45.60
2023-05-02T16:52:22.578Z,46.80
2023-05-02T16:54:49.387Z,46.80
2023-05-02T16:57:23.097Z,47.40
2023-05-02T16:59:51.773Z,48.60
2023-05-02T17:02:21.048Z,48.10
2023-05-02T17:04:50.548Z,48.50
2023-05-02T17:07:18.839Z,50.00
2023-05-02T17:09:46.012Z,50.20
2023-05-02T17:12:13.156Z,51.00
2023-05-02T17:14:42.366Z,50.30
2023-05-02T17:17:10.133Z,50.80
2023-05-02T17:19:37.172Z,51.40
2023-05-02T17:22:04.938Z,52.30
2023-05-02T17:24:32.380Z,52.70
2023-05-02T17:26:59.149Z,53.30
2023-05-02T17:29:25.832Z,53.90
2023-05-02T17:31:52.517Z,54.40
2023-05-02T17:34:19.201Z,54.80
2023-05-02T17:36:46.276Z,55.40
2023-05-02T17:39:13.365Z,55.60
2023-05-02T17:41:40.159Z,56.70
2023-05-02T17:44:07.089Z,57.80
2023-05-02T17:46:33.778Z,58.70
2023-05-02T17:49:00.810Z,59.50
2023-05-02T17:51:27.842Z,60.30
2023-05-02T17:53:54.568Z,61.40
2023-05-02T17:56:21.316Z,62.10
2023-05-02T17:58:48.202Z,62.60
2023-05-02T18:01:14.924Z,63.00
2023-05-02T18:03:41.957Z,63.60
2023-05-02T18:06:09.318Z,64.30
2023-05-02T18:08:36.040Z,65.30
2023-05-02T18:11:03.366Z,65.60
2023-05-02T18:13:31.004Z,65.80
2023-05-02T18:15:58.734Z,66.60
2023-05-02T18:18:25.557Z,67.60
2023-05-02T18:20:52.195Z,68.30
2023-05-02T18:23:18.825Z,68.80
2023-05-02T18:25:45.448Z,69.50
2023-05-02T18:28:13.250Z,70.60
2023-05-02T18:30:40.038Z,72.10
2023-05-02T18:33:07.484Z,73.40
2023-05-02T18:35:34.219Z,75.20
2023-05-02T18:38:01.447Z,77.30
2023-05-02T18:40:28.093Z,80.30
2023-05-02T18:42:54.677Z,82.90
2023-05-02T18:45:21.271Z,86.20
2023-05-02T18:47:49.312Z,88.70
2023-05-02T18:50:16.553Z,90.80
2023-05-02T18:52:43.154Z,92.10
2023-05-02T18:55:09.772Z,93.50
2023-05-02T18:57:36.479Z,95.20
2023-05-02T19:00:06.186Z,96.80
2023-05-02T19:02:33.494Z,98.00
2023-05-02T19:05:00.824Z,99.20
2023-05-02T19:07:27.775Z,99.90
2023-05-02T19:09:54.460Z,99.90
2023-05-02T19:12:21.131Z,99.90
2023-05-02T19:14:50.217Z,99.90
2023-05-02T19:17:16.989Z,99.90
2023-05-02T19:19:43.726Z,99.90
2023-05-02T19:22:10.488Z,99.90
2023-05-02T19:24:37.106Z,99.90
2023-05-02T19:27:06.678Z,99.90
2023-05-02T19:29:34.235Z,99.90
2023-05-02T19:32:01.077Z,99.90
2023-05-02T19:34:28.159Z,99.90
2023-05-02T19:36:54.999Z,99.90
2023-05-02T19:39:21.827Z,99.90
2023-05-02T19:41:49.829Z,99.90
2023-05-02T19:44:17.851Z,99.90
2023-05-02T19:46:44.554Z,99.90
2023-05-02T19:49:11.253Z,99.90
2023-05-02T19:51:37.990Z,99.90
2023-05-02T19:54:04.738Z,99.90
2023-05-02T19:56:31.569Z,99.90
2023-05-02T19:58:58.775Z,99.90
2023-05-02T20:01:26.914Z,99.90
2023-05-02T20:03:54.699Z,99.90
2023-05-02T20:06:21.515Z,99.90
2023-05-02T20:08:48.218Z,99.90
2023-05-02T20:11:14.814Z,99.90
2023-05-02T20:13:41.416Z,99.90
2023-05-02T20:16:08.120Z,99.90
2023-05-02T20:18:34.762Z,99.90
2023-05-02T20:21:01.422Z,99.90
2023-05-02T20:23:28.108Z,99.90
2023-05-02T20:25:54.815Z,99.90
2023-05-02T20:28:21.426Z,99.90
2023-05-02T20:30:48.096Z,99.90
2023-05-02T20:33:16.675Z,99.90
2023-05-02T20:35:43.684Z,99.90
2023-05-02T20:38:11.081Z,99.90
2023-05-02T20:40:39.816Z,99.90
2023-05-02T20:43:06.519Z,99.90
2023-05-02T20:45:33.271Z,99.90
2023-05-02T20:47:59.940Z,99.90
2023-05-02T20:50:27.120Z,99.90
2023-05-02T20:52:54.344Z,99.90
2023-05-02T20:55:22.807Z,99.90
2023-05-02T20:57:52.989Z,99.90
2023-05-02T21:00:22.592Z,99.90
2023-05-02T21:02:49.510Z,99.90
2023-05-02T21:05:16.703Z,99.90
2023-05-02T21:07:44.575Z,99.90
2023-05-02T21:10:11.268Z,99.90
2023-05-02T21:12:38.066Z,99.90
2023-05-02T21:15:05.620Z,99.90
2023-05-02T21:17:32.286Z,99.90
2023-05-02T21:19:59.056Z,99.90
2023-05-02T21:22:26.849Z,99.90
2023-05-02T21:24:53.466Z,99.90
2023-05-02T21:27:20.251Z,99.90
2023-05-02T21:29:46.929Z,99.90
2023-05-02T21:32:13.901Z,99.90
2023-05-02T21:34:40.884Z,99.90
2023-05-02T21:37:07.510Z,99.90
2023-05-02T21:39:34.117Z,99.90
2023-05-02T21:42:01.354Z,99.90
2023-05-02T21:44:27.969Z,99.90
2023-05-02T21:46:54.764Z,99.90
2023-05-02T21:49:21.714Z,99.90
2023-05-02T21:51:48.298Z,99.90
2023-05-02T21:54:14.912Z,99.90
2023-05-02T21:56:41.501Z,99.90
2023-05-02T21:59:08.103Z,99.90
2023-05-02T22:01:34.763Z,99.90
2023-05-02T22:04:01.362Z,99.90
2023-05-02T22:06:28.427Z,99.90
2023-05-02T22:08:55.111Z,99.90
2023-05-02T22:11:24.090Z,99.90
2023-05-02T22:13:50.895Z,99.90
2023-05-02T22:16:17.609Z,99.90
2023-05-02T22:18:44.596Z,99.90
2023-05-02T22:21:12.099Z,99.90
2023-05-02T22:23:38.984Z,99.90
2023-05-02T22:26:05.774Z,99.90
2023-05-02T22:28:32.452Z,99.90
2023-05-02T22:30:59.111Z,99.90
2023-05-02T22:33:25.996Z,99.90
2023-05-02T22:35:52.632Z,99.90
2023-05-02T22:38:19.954Z,99.90
2023-05-02T22:40:46.697Z,99.90
2023-05-02T22:43:13.342Z,99.90
2023-05-02T22:45:40.565Z,99.90
2023-05-02T22:48:07.885Z,99.90
2023-05-02T22:50:34.615Z,99.90
2023-05-02T22:53:03.514Z,99.90
2023-05-02T22:55:30.263Z,99.90
2023-05-02T22:57:57.098Z,99.90
2023-05-02T23:00:25.125Z,99.90
2023-05-02T23:02:51.959Z,99.90
2023-05-02T23:05:18.902Z,99.90
2023-05-02T23:07:45.758Z,99.90
2023-05-02T23:10:12.389Z,99.90
2023-05-02T23:12:39.168Z,99.90
2023-05-02T23:15:06.930Z,99.90
2023-05-02T23:17:37.022Z,99.90
2023-05-02T23:20:05.218Z,99.90
2023-05-02T23:22:35.619Z,99.90
2023-05-02T23:25:02.369Z,99.90
2023-05-02T23:27:29.031Z,99.90
2023-05-02T23:29:55.628Z,99.90
2023-05-02T23:32:23.587Z,99.90
2023-05-02T23:34:50.807Z,99.90
2023-05-02T23:37:17.450Z,99.90
2023-05-02T23:39:44.039Z,99.90
2023-05-02T23:42:10.632Z,99.90
2023-05-02T23:44:37.273Z,99.90
2023-05-02T23:47:04.117Z,99.90
2023-05-02T23:49:30.817Z,99.90
2023-05-02T23:51:57.480Z,99.90
2023-05-02T23:54:24.385Z,99.90
2023-05-02T23:56:53.120Z,99.90
2023-05-02T23:59:19.719Z,99.90
